createdAt,value
2019-02-21T00:00:42.293Z,102019.96
2019-02-21T00:03:11.191Z,102013.34
2019-02-21T00:05:39.820Z,102009.78
2019-02-21T00:08:08.482Z,102009.78
2019-02-21T00:10:37.164Z,102013.20
2019-02-21T00:13:06.395Z,102009.51
2019-02-21T00:15:35.289Z,102018.66
2019-02-21T00:18:04.203Z,102009.31
2019-02-21T00:20:32.840Z,102011.73
2019-02-21T00:23:01.774Z,102008.11
2019-02-21T00:25:30.889Z,102012.66
2019-02-21T00:27:59.774Z,102009.65
2019-02-21T00:30:35.194Z,102006.48
2019-02-21T00:32:59.265Z,102009.45
2019-02-21T00:35:28.226Z,102006.91
2019-02-21T00:37:57.111Z,102007.95
2019-02-21T00:40:26.071Z,102000.78
2019-02-21T00:42:55.259Z,102003.37
2019-02-21T00:45:24.657Z,102013.83
2019-02-21T00:47:53.596Z,102009.80
2019-02-21T00:50:22.235Z,102013.36
2019-02-21T00:52:51.364Z,102017.90
2019-02-21T00:55:20.250Z,102011.53
2019-02-21T00:57:49.147Z,102011.36
2019-02-21T01:00:17.970Z,102006.81
2019-02-21T01:02:46.609Z,102012.09
2019-02-21T01:05:15.524Z,102010.56
2019-02-21T01:07:46.983Z,102010.34
2019-02-21T01:10:15.007Z,102007.02
2019-02-21T01:12:44.172Z,102001.32
2019-02-21T01:15:12.894Z,102005.16
2019-02-21T01:17:41.803Z,102003.67
2019-02-21T01:20:10.768Z,102002.52
2019-02-21T01:22:39.479Z,102004.65
2019-02-21T01:25:08.471Z,102002.89
2019-02-21T01:27:37.119Z,102005.85
2019-02-21T01:30:06.064Z,102007.02
2019-02-21T01:32:35.023Z,102005.25
2019-02-21T01:35:03.727Z,101998.83
2019-02-21T01:37:32.417Z,102001.00
2019-02-21T01:40:01.388Z,102000.12
2019-02-21T01:42:30.267Z,101996.13
2019-02-21T01:44:58.960Z,101994.11
2019-02-21T01:47:27.853Z,101997.39
2019-02-21T01:49:56.508Z,101992.61
2019-02-21T01:52:25.368Z,101993.16
2019-02-21T01:54:54.041Z,101991.31
2019-02-21T01:57:23.137Z,101989.89
2019-02-21T01:59:52.015Z,101989.89
2019-02-21T02:02:20.643Z,101996.87
2019-02-21T02:04:49.531Z,101996.60
2019-02-21T02:07:18.395Z,101989.09
2019-02-21T02:09:47.442Z,101993.53
2019-02-21T02:12:16.090Z,101992.33
2019-02-21T02:14:45.249Z,101993.16
2019-02-21T02:17:14.389Z,101990.11
2019-02-21T02:19:43.276Z,101987.30
2019-02-21T02:22:12.467Z,101986.46
2019-02-21T02:24:41.350Z,101991.64
2019-02-21T02:27:10.113Z,101993.05
2019-02-21T02:29:38.988Z,101992.52
2019-02-21T02:32:09.678Z,101990.45
2019-02-21T02:34:38.249Z,101997.53
2019-02-21T02:37:06.861Z,101998.27
2019-02-21T02:39:35.566Z,101997.39
2019-02-21T02:42:04.278Z,101988.74
2019-02-21T02:44:33.167Z,101992.26
2019-02-21T02:47:01.835Z,101990.72
2019-02-21T02:49:31.093Z,101987.13
2019-02-21T02:51:59.754Z,101989.99
2019-02-21T02:54:28.909Z,101981.06
2019-02-21T02:56:58.100Z,101989.44
2019-02-21T02:59:26.979Z,101998.78
2019-02-21T03:01:55.882Z,101993.53
2019-02-21T03:04:24.613Z,101989.01
2019-02-21T03:06:53.481Z,101988.91
2019-02-21T03:09:22.357Z,101983.91
2019-02-21T03:11:52.057Z,101993.23
2019-02-21T03:14:21.110Z,102000.08
2019-02-21T03:16:50.011Z,102000.08
2019-02-21T03:19:21.974Z,102002.84
2019-02-21T03:21:51.104Z,102007.39
2019-02-21T03:24:19.951Z,102010.85
2019-02-21T03:26:48.820Z,102005.16
2019-02-21T03:29:17.711Z,102012.98
2019-02-21T03:31:54.385Z,102005.21
2019-02-21T03:34:17.569Z,102010.48
2019-02-21T03:36:46.473Z,102003.36
2019-02-21T03:39:17.844Z,102005.77
2019-02-21T03:41:47.213Z,101998.55
2019-02-21T03:44:15.846Z,102013.15
2019-02-21T03:46:44.458Z,102007.19
2019-02-21T03:49:13.869Z,102000.91
2019-02-21T03:51:42.774Z,102006.91
2019-02-21T03:54:11.461Z,102010.33
2019-02-21T03:56:43.204Z,102008.42
2019-02-21T03:59:13.642Z,102014.02
2019-02-21T04:01:42.224Z,102008.75
2019-02-21T04:04:13.974Z,102026.41
2019-02-21T04:06:43.142Z,102016.94
2019-02-21T04:09:12.189Z,102018.59
2019-02-21T04:11:43.884Z,102012.07
2019-02-21T04:14:12.856Z,102007.16
2019-02-21T04:16:41.836Z,102012.34
2019-02-21T04:19:10.450Z,102012.34
2019-02-21T04:21:39.649Z,102005.45
2019-02-21T04:24:08.731Z,101997.33
2019-02-21T04:26:37.615Z,102007.86
2019-02-21T04:29:06.584Z,102006.33
2019-02-21T04:31:35.772Z,102008.32
2019-02-21T04:34:04.649Z,102000.45
2019-02-21T04:36:33.546Z,102003.46
2019-02-21T04:39:02.194Z,101993.02
2019-02-21T04:41:31.055Z,101993.02
2019-02-21T04:43:59.983Z,102000.33
2019-02-21T04:46:28.882Z,101997.97
2019-02-21T04:48:57.766Z,101998.11
2019-02-21T04:51:26.750Z,102000.09
2019-02-21T04:53:55.670Z,101999.89
2019-02-21T04:56:24.549Z,101997.92
2019-02-21T04:58:53.720Z,101993.38
2019-02-21T05:01:22.897Z,101999.43
2019-02-21T05:03:51.601Z,101990.14
2019-02-21T05:06:20.288Z,101992.57
2019-02-21T05:08:49.240Z,101984.76
2019-02-21T05:11:18.599Z,101984.76
2019-02-21T05:13:47.549Z,101985.74
2019-02-21T05:16:16.182Z,101985.90
2019-02-21T05:18:45.126Z,101982.17
2019-02-21T05:21:16.826Z,101984.34
2019-02-21T05:23:46.902Z,101979.13
2019-02-21T05:26:20.097Z,101973.34
2019-02-21T05:28:49.190Z,101973.34
2019-02-21T05:31:27.520Z,101980.31
2019-02-21T05:34:07.682Z,101983.69
2019-02-21T05:36:58.393Z,101977.17
2019-02-21T05:39:54.333Z,101977.17
2019-02-21T05:42:35.964Z,101982.77
2019-02-21T05:45:29.582Z,101970.48
2019-02-21T05:48:12.223Z,101974.41
2019-02-21T05:50:49.410Z,101971.44
2019-02-21T05:53:24.948Z,101970.09
2019-02-21T05:56:01.629Z,101974.17
2019-02-21T05:58:49.750Z,101968.44
2019-02-21T06:01:43.743Z,101979.02
2019-02-21T06:04:38.185Z,101987.67
2019-02-21T06:07:16.721Z,101983.13
2019-02-21T06:10:16.395Z,101966.47
2019-02-21T06:12:51.479Z,101975.00
2019-02-21T06:15:51.578Z,101985.55
2019-02-21T06:18:43.601Z,101973.55
2019-02-21T06:21:37.380Z,101966.52
2019-02-21T06:24:24.070Z,101966.52
2019-02-21T06:27:12.172Z,101973.09
2019-02-21T06:29:45.259Z,101966.52
2019-02-21T06:32:14.735Z,101977.84
2019-02-21T06:34:43.596Z,101977.84
2019-02-21T06:37:12.883Z,101971.84
2019-02-21T06:39:42.353Z,101988.12
2019-02-21T06:42:11.477Z,101972.98
2019-02-21T06:44:40.362Z,101977.53
2019-02-21T06:47:09.523Z,101977.53
2019-02-21T06:49:38.676Z,101990.78
2019-02-21T06:52:07.640Z,101990.78
2019-02-21T06:54:36.607Z,101993.00
2019-02-21T06:57:05.566Z,101992.44
2019-02-21T06:59:42.182Z,101995.59
2019-02-21T07:02:05.260Z,101986.38
2019-02-21T07:04:34.207Z,101986.38
2019-02-21T07:07:03.527Z,101988.36
2019-02-21T07:09:32.729Z,101981.98
2019-02-21T07:12:01.728Z,101957.42
2019-02-21T07:14:30.423Z,101977.64
2019-02-21T07:17:00.466Z,101992.23
2019-02-21T07:19:29.392Z,101987.47
2019-02-21T07:21:58.346Z,101993.05
2019-02-21T07:24:27.228Z,101979.34
2019-02-21T07:26:55.887Z,101992.28
2019-02-21T07:29:24.558Z,101992.28
2019-02-21T07:31:54.031Z,101989.47
2019-02-21T07:34:22.849Z,101989.47
2019-02-21T07:36:51.858Z,101996.45
2019-02-21T07:39:21.411Z,102002.33
2019-02-21T07:41:50.909Z,101983.56
2019-02-21T07:44:20.044Z,101983.56
2019-02-21T07:46:48.662Z,101985.79
2019-02-21T07:49:17.297Z,101997.67
2019-02-21T07:51:46.698Z,101991.72
2019-02-21T07:54:18.510Z,101991.72
2019-02-21T07:56:47.501Z,102000.09
2019-02-21T07:59:16.241Z,102005.27
2019-02-21T08:01:45.384Z,102003.05
2019-02-21T08:04:14.860Z,102004.11
2019-02-21T08:06:43.801Z,101995.05
2019-02-21T08:09:12.831Z,101996.81
2019-02-21T08:11:42.204Z,101987.91
2019-02-21T08:14:10.863Z,101990.97
2019-02-21T08:16:39.766Z,101978.86
2019-02-21T08:19:08.669Z,101978.86
2019-02-21T08:21:37.521Z,101985.66
2019-02-21T08:24:06.316Z,101972.30
2019-02-21T08:26:35.258Z,101976.08
2019-02-21T08:29:06.170Z,101973.78
2019-02-21T08:31:34.618Z,101965.54
2019-02-21T08:34:07.437Z,101956.21
2019-02-21T08:36:36.584Z,101952.57
2019-02-21T08:39:07.161Z,101944.03
2019-02-21T08:41:39.019Z,101954.39
2019-02-21T08:44:07.666Z,101952.48
2019-02-21T08:46:36.657Z,101964.39
2019-02-21T08:49:07.642Z,101964.39
2019-02-21T08:51:36.604Z,101956.42
2019-02-21T08:54:05.777Z,101948.66
2019-02-21T08:56:34.984Z,101951.87
2019-02-21T08:59:03.940Z,101954.63
2019-02-21T09:01:32.640Z,101957.56
2019-02-21T09:04:10.468Z,101943.49
2019-02-21T09:06:34.661Z,101947.01
2019-02-21T09:09:04.264Z,101947.01
2019-02-21T09:11:32.970Z,101926.61
2019-02-21T09:14:01.882Z,101927.02
2019-02-21T09:16:31.012Z,101927.19
2019-02-21T09:19:00.223Z,101918.09
2019-02-21T09:21:29.155Z,101926.28
2019-02-21T09:23:58.143Z,101937.80
2019-02-21T09:26:27.020Z,101934.44
2019-02-21T09:28:58.514Z,101939.17
2019-02-21T09:31:26.446Z,101953.31
2019-02-21T09:33:55.176Z,101938.23
2019-02-21T09:36:24.039Z,101943.58
2019-02-21T09:38:53.086Z,101953.11
2019-02-21T09:41:22.280Z,101972.59
2019-02-21T09:43:51.458Z,101968.45
2019-02-21T09:46:20.579Z,101969.22
2019-02-21T09:48:49.489Z,101984.07
2019-02-21T09:51:18.466Z,102013.41
2019-02-21T09:53:47.325Z,101994.56
2019-02-21T09:56:16.215Z,101997.22
2019-02-21T09:58:45.999Z,102000.61
2019-02-21T10:01:14.765Z,101988.58
2019-02-21T10:03:44.371Z,101990.33
2019-02-21T10:06:13.146Z,101983.38
2019-02-21T10:08:41.776Z,101995.22
2019-02-21T10:11:11.539Z,101997.81
2019-02-21T10:13:40.275Z,101990.79
2019-02-21T10:16:09.155Z,101980.75
2019-02-21T10:18:38.717Z,101980.37
2019-02-21T10:21:07.343Z,101980.37
2019-02-21T10:23:35.960Z,101981.92
2019-02-21T10:26:04.671Z,101987.19
2019-02-21T10:28:33.289Z,101993.82
2019-02-21T10:31:02.373Z,101997.78
2019-02-21T10:33:31.513Z,101989.11
2019-02-21T10:36:00.595Z,101994.91
2019-02-21T10:38:29.353Z,101993.33
2019-02-21T10:40:58.276Z,102014.67
2019-02-21T10:43:26.859Z,101997.90
2019-02-21T10:45:55.736Z,102006.22
2019-02-21T10:48:24.690Z,102013.70
2019-02-21T10:50:53.389Z,102010.19
2019-02-21T10:53:22.034Z,101998.05
2019-02-21T10:55:50.828Z,102004.81
2019-02-21T10:58:19.715Z,101999.38
2019-02-21T11:00:48.418Z,102005.03
2019-02-21T11:03:17.543Z,102016.72
2019-02-21T11:05:46.544Z,102017.17
2019-02-21T11:08:15.501Z,102013.28
2019-02-21T11:10:44.491Z,102005.14
2019-02-21T11:13:13.378Z,101998.50
2019-02-21T11:15:42.485Z,101998.50
2019-02-21T11:18:11.093Z,101994.30
2019-02-21T11:20:40.017Z,101989.56
2019-02-21T11:23:08.862Z,101988.19
2019-02-21T11:25:37.560Z,102005.29
2019-02-21T11:28:06.743Z,102001.28
2019-02-21T11:30:35.462Z,101989.67
2019-02-21T11:33:04.724Z,101990.59
2019-02-21T11:35:33.604Z,101996.89
2019-02-21T11:38:02.316Z,101995.33
2019-02-21T11:40:31.577Z,102001.56
2019-02-21T11:43:02.691Z,102000.98
2019-02-21T11:45:31.976Z,101994.16
2019-02-21T11:48:01.078Z,101991.06
2019-02-21T11:50:30.353Z,101998.89
2019-02-21T11:52:59.556Z,101998.89
2019-02-21T11:55:28.586Z,101998.20
2019-02-21T11:57:57.498Z,101994.16
2019-02-21T12:00:26.659Z,101998.89
2019-02-21T12:02:55.513Z,101998.89
2019-02-21T12:05:32.189Z,101999.55
2019-02-21T12:07:54.919Z,102000.27
2019-02-21T12:10:23.743Z,102000.27
2019-02-21T12:12:53.196Z,102014.11
2019-02-21T12:15:22.125Z,102014.11
2019-02-21T12:17:50.868Z,102007.70
2019-02-21T12:20:19.843Z,102028.27
2019-02-21T12:22:48.546Z,102013.16
2019-02-21T12:25:17.494Z,102014.41
2019-02-21T12:27:46.160Z,102030.48
2019-02-21T12:30:16.600Z,102014.49
2019-02-21T12:32:45.507Z,102024.38
2019-02-21T12:35:15.114Z,102026.47
2019-02-21T12:37:43.897Z,102030.75
2019-02-21T12:40:14.842Z,102032.39
2019-02-21T12:42:43.795Z,102025.20
2019-02-21T12:45:13.981Z,102023.91
2019-02-21T12:47:50.841Z,102050.09
2019-02-21T12:50:13.655Z,102037.17
2019-02-21T12:52:42.632Z,102042.86
2019-02-21T12:55:11.537Z,102044.00
2019-02-21T12:57:40.723Z,102052.91
2019-02-21T13:00:12.172Z,102044.92
2019-02-21T13:02:41.041Z,102037.34
2019-02-21T13:05:09.934Z,102040.48
2019-02-21T13:07:38.928Z,102041.66
2019-02-21T13:10:10.022Z,102040.73
2019-02-21T13:12:39.414Z,102033.41
2019-02-21T13:15:09.247Z,102037.47
2019-02-21T13:17:37.858Z,102037.47
2019-02-21T13:20:07.376Z,102036.68
2019-02-21T13:22:36.330Z,102037.44
2019-02-21T13:25:05.897Z,102032.95
2019-02-21T13:27:35.262Z,102041.88
2019-02-21T13:30:04.561Z,102041.45
2019-02-21T13:32:33.704Z,102041.45
2019-02-21T13:35:03.105Z,102045.22
2019-02-21T13:37:31.957Z,102039.02
2019-02-21T13:40:00.976Z,102042.58
2019-02-21T13:42:29.922Z,102049.39
2019-02-21T13:44:58.523Z,102049.39
2019-02-21T13:47:27.396Z,102047.64
2019-02-21T13:49:56.041Z,102053.08
2019-02-21T13:52:24.756Z,102049.90
2019-02-21T13:54:53.578Z,102040.98
2019-02-21T13:57:22.725Z,102058.30
2019-02-21T13:59:51.774Z,102058.30
2019-02-21T14:02:20.481Z,102057.02
2019-02-21T14:04:49.862Z,102051.33
2019-02-21T14:07:18.761Z,102052.91
2019-02-21T14:09:47.646Z,102049.42
2019-02-21T14:12:16.629Z,102062.58
2019-02-21T14:14:45.747Z,102065.08
2019-02-21T14:17:15.208Z,102060.49
2019-02-21T14:19:44.345Z,102055.16
2019-02-21T14:22:13.490Z,102048.58
2019-02-21T14:24:42.379Z,102043.86
2019-02-21T14:27:11.319Z,102041.34
2019-02-21T14:29:40.036Z,102032.41
2019-02-21T14:32:08.998Z,102023.62
2019-02-21T14:34:37.723Z,102023.52
2019-02-21T14:37:06.566Z,102032.01
2019-02-21T14:39:35.524Z,102043.56
2019-02-21T14:42:04.660Z,102043.56
2019-02-21T14:44:34.039Z,102050.41
2019-02-21T14:47:02.971Z,102054.73
2019-02-21T14:49:32.088Z,102049.69
2019-02-21T14:52:01.987Z,102062.45
2019-02-21T14:54:31.024Z,102059.06
2019-02-21T14:56:59.888Z,102052.66
2019-02-21T14:59:28.755Z,102066.97
2019-02-21T15:01:57.620Z,102067.08
2019-02-21T15:04:26.776Z,102070.89
2019-02-21T15:06:55.916Z,102065.83
2019-02-21T15:09:24.860Z,102075.32
2019-02-21T15:11:53.771Z,102068.47
2019-02-21T15:14:23.225Z,102061.89
2019-02-21T15:16:51.893Z,102073.19
2019-02-21T15:19:20.521Z,102069.67
2019-02-21T15:21:49.161Z,102065.83
2019-02-21T15:24:17.831Z,102061.35
2019-02-21T15:26:46.963Z,102060.85
2019-02-21T15:29:15.810Z,102067.08
2019-02-21T15:31:44.688Z,102056.42
2019-02-21T15:34:13.600Z,102058.81
2019-02-21T15:36:42.780Z,102064.25
2019-02-21T15:39:11.526Z,102058.51
2019-02-21T15:41:40.495Z,102060.36
2019-02-21T15:44:09.608Z,102060.22
2019-02-21T15:46:38.502Z,102067.54
2019-02-21T15:49:07.201Z,102063.70
2019-02-21T15:51:40.734Z,102073.23
2019-02-21T15:54:12.337Z,102073.69
2019-02-21T15:56:40.788Z,102071.10
2019-02-21T15:59:09.522Z,102066.95
2019-02-21T16:01:47.010Z,102071.56
2019-02-21T16:04:08.815Z,102075.45
2019-02-21T16:06:39.308Z,102072.02
2019-02-21T16:09:16.300Z,102077.37
2019-02-21T16:11:40.002Z,102069.51
2019-02-21T16:14:09.794Z,102074.16
2019-02-21T16:16:38.427Z,102070.59
2019-02-21T16:19:07.236Z,102072.39
2019-02-21T16:21:36.385Z,102079.17
2019-02-21T16:24:05.635Z,102071.22
2019-02-21T16:26:36.195Z,102077.93
2019-02-21T16:29:04.849Z,102074.11
2019-02-21T16:31:33.789Z,102073.65
2019-02-21T16:34:02.708Z,102085.06
2019-02-21T16:36:31.621Z,102087.33
2019-02-21T16:39:01.318Z,102075.45
2019-02-21T16:41:36.379Z,102074.94
2019-02-21T16:44:01.216Z,102074.16
2019-02-21T16:46:29.840Z,102077.93
2019-02-21T16:48:58.746Z,102076.56
2019-02-21T16:51:27.449Z,102087.48
2019-02-21T16:53:56.574Z,102085.73
2019-02-21T16:56:26.646Z,102083.69
2019-02-21T16:58:55.432Z,102089.25
2019-02-21T17:01:24.328Z,102088.45
2019-02-21T17:03:52.964Z,102084.98
2019-02-21T17:06:21.896Z,102089.00
2019-02-21T17:08:50.539Z,102093.30
2019-02-21T17:11:19.533Z,102100.87
2019-02-21T17:13:52.797Z,102104.45
2019-02-21T17:16:21.072Z,102105.74
2019-02-21T17:18:50.043Z,102118.20
2019-02-21T17:21:20.996Z,102115.38
2019-02-21T17:23:49.622Z,102119.81
2019-02-21T17:26:18.262Z,102131.81
2019-02-21T17:28:49.920Z,102134.27
2019-02-21T17:31:18.649Z,102130.89
2019-02-21T17:33:47.525Z,102130.23
2019-02-21T17:36:16.269Z,102127.05
2019-02-21T17:38:45.334Z,102133.70
2019-02-21T17:41:14.270Z,102133.66
2019-02-21T17:43:43.443Z,102136.25
2019-02-21T17:46:12.376Z,102143.84
2019-02-21T17:48:41.363Z,102146.30
2019-02-21T17:51:10.310Z,102144.02
2019-02-21T17:53:39.284Z,102142.77
2019-02-21T17:56:08.280Z,102143.06
2019-02-21T17:58:37.307Z,102155.55
2019-02-21T18:01:08.812Z,102154.34
2019-02-21T18:03:37.657Z,102151.02
2019-02-21T18:06:06.415Z,102146.70
2019-02-21T18:08:35.342Z,102154.72
2019-02-21T18:11:04.092Z,102155.00
2019-02-21T18:13:32.857Z,102157.27
2019-02-21T18:16:01.512Z,102159.86
2019-02-21T18:18:30.439Z,102154.26
2019-02-21T18:20:59.189Z,102158.23
2019-02-21T18:23:27.863Z,102157.27
2019-02-21T18:26:04.448Z,102158.79
2019-02-21T18:28:33.523Z,102160.87
2019-02-21T18:31:02.287Z,102161.06
2019-02-21T18:33:31.203Z,102160.27
2019-02-21T18:35:59.877Z,102157.08
2019-02-21T18:38:28.754Z,102172.67
2019-02-21T18:40:57.493Z,102167.08
2019-02-21T18:43:26.980Z,102168.73
2019-02-21T18:45:57.543Z,102163.80
2019-02-21T18:48:26.517Z,102178.95
2019-02-21T18:50:55.280Z,102168.83
2019-02-21T18:53:23.964Z,102174.16
2019-02-21T18:55:52.879Z,102181.55
2019-02-21T18:58:22.593Z,102182.47
2019-02-21T19:00:51.509Z,102177.66
2019-02-21T19:03:24.831Z,102185.16
2019-02-21T19:05:54.026Z,102195.02
2019-02-21T19:08:22.691Z,102197.48
2019-02-21T19:10:52.069Z,102197.48
2019-02-21T19:13:20.716Z,102204.52
2019-02-21T19:15:49.926Z,102203.41
2019-02-21T19:18:18.856Z,102202.67
2019-02-21T19:20:49.870Z,102209.70
2019-02-21T19:23:18.897Z,102212.85
2019-02-21T19:25:49.166Z,102211.51
2019-02-21T19:28:18.845Z,102217.94
2019-02-21T19:30:54.436Z,102219.52
2019-02-21T19:33:23.420Z,102226.83
2019-02-21T19:35:52.908Z,102223.77
2019-02-21T19:38:22.627Z,102233.77
2019-02-21T19:40:51.521Z,102230.80
2019-02-21T19:43:20.492Z,102233.05
2019-02-21T19:45:50.533Z,102238.70
2019-02-21T19:48:19.267Z,102241.61
2019-02-21T19:50:47.986Z,102237.61
2019-02-21T19:53:17.014Z,102239.59
2019-02-21T19:55:46.266Z,102246.33
2019-02-21T19:58:15.788Z,102246.33
2019-02-21T20:00:44.832Z,102250.91
2019-02-21T20:03:13.906Z,102253.57
2019-02-21T20:05:42.930Z,102267.55
2019-02-21T20:08:20.986Z,102263.78
2019-02-21T20:10:43.249Z,102279.42
2019-02-21T20:13:13.411Z,102284.29
2019-02-21T20:15:42.182Z,102296.16
2019-02-21T20:18:10.887Z,102301.29
2019-02-21T20:20:40.195Z,102310.55
2019-02-21T20:23:11.032Z,102307.83
2019-02-21T20:25:39.978Z,102301.21
2019-02-21T20:28:08.958Z,102302.66
2019-02-21T20:30:37.969Z,102312.66
2019-02-21T20:33:06.651Z,102311.81
2019-02-21T20:35:35.591Z,102311.79
2019-02-21T20:38:04.735Z,102320.97
2019-02-21T20:40:33.620Z,102314.44
2019-02-21T20:43:02.437Z,102318.55
2019-02-21T20:45:31.673Z,102319.85
2019-02-21T20:48:01.115Z,102322.85
2019-02-21T20:50:29.743Z,102327.49
2019-02-21T20:52:58.699Z,102323.05
2019-02-21T20:55:27.345Z,102335.05
2019-02-21T20:57:56.502Z,102330.97
2019-02-21T21:00:25.792Z,102339.88
2019-02-21T21:02:54.446Z,102343.02
2019-02-21T21:05:23.447Z,102351.28
2019-02-21T21:07:52.648Z,102351.28
2019-02-21T21:10:21.626Z,102345.57
2019-02-21T21:12:50.785Z,102359.17
2019-02-21T21:15:19.525Z,102367.34
2019-02-21T21:17:48.459Z,102369.94
2019-02-21T21:20:17.665Z,102372.41
2019-02-21T21:22:46.562Z,102379.75
2019-02-21T21:25:15.422Z,102385.34
2019-02-21T21:27:44.856Z,102385.34
2019-02-21T21:30:14.540Z,102384.98
2019-02-21T21:32:43.237Z,102385.11
2019-02-21T21:35:12.180Z,102389.55
2019-02-21T21:37:41.183Z,102387.03
2019-02-21T21:40:11.801Z,102396.02
2019-02-21T21:42:41.378Z,102398.67
2019-02-21T21:45:12.582Z,102400.78
2019-02-21T21:47:41.697Z,102405.48
2019-02-21T21:50:11.357Z,102419.38
2019-02-21T21:52:40.278Z,102419.38
2019-02-21T21:55:08.976Z,102422.72
2019-02-21T21:57:37.918Z,102418.31
2019-02-21T22:00:09.127Z,102421.08
2019-02-21T22:02:37.765Z,102432.84
2019-02-21T22:05:07.039Z,102442.25
2019-02-21T22:07:35.687Z,102442.25
2019-02-21T22:10:05.161Z,102443.48
2019-02-21T22:12:34.315Z,102456.53
2019-02-21T22:15:03.254Z,102456.53
2019-02-21T22:17:31.885Z,102459.94
2019-02-21T22:20:00.502Z,102466.34
2019-02-21T22:22:29.442Z,102460.41
2019-02-21T22:24:58.313Z,102468.65
2019-02-21T22:27:27.228Z,102473.83
2019-02-21T22:29:56.397Z,102477.86
2019-02-21T22:32:25.279Z,102482.00
2019-02-21T22:34:53.930Z,102486.63
2019-02-21T22:37:22.579Z,102482.34
2019-02-21T22:39:52.186Z,102484.30
2019-02-21T22:42:20.815Z,102492.34
2019-02-21T22:44:49.734Z,102492.34
2019-02-21T22:47:18.390Z,102482.62
2019-02-21T22:49:47.550Z,102486.44
2019-02-21T22:52:17.098Z,102487.03
2019-02-21T22:54:46.516Z,102505.77
2019-02-21T22:57:15.654Z,102511.89
2019-02-21T22:59:44.814Z,102510.40
2019-02-21T23:02:13.967Z,102516.86
2019-02-21T23:04:48.374Z,102516.86
2019-02-21T23:07:53.430Z,102516.50
2019-02-21T23:10:22.404Z,102524.13
2019-02-21T23:12:51.286Z,102528.36
2019-02-21T23:15:20.509Z,102525.81
2019-02-21T23:17:49.714Z,102523.03
2019-02-21T23:20:18.667Z,102532.42
2019-02-21T23:22:48.062Z,102532.42
2019-02-21T23:25:16.974Z,102534.30
2019-02-21T23:27:45.868Z,102549.03
2019-02-21T23:30:14.919Z,102549.03
2019-02-21T23:32:44.044Z,102570.27
2019-02-21T23:35:18.103Z,102570.67
2019-02-21T23:37:47.073Z,102570.67
2019-02-21T23:40:16.262Z,102586.93
2019-02-21T23:42:44.923Z,102595.16
2019-02-21T23:45:13.890Z,102595.16
2019-02-21T23:47:49.819Z,102597.67
2019-02-21T23:50:12.988Z,102598.83
2019-02-21T23:52:42.246Z,102616.30
2019-02-21T23:55:10.919Z,102616.30
2019-02-21T23:57:39.893Z,102616.66
